Time;durP1;ratioP1;P1;durP2;ratioP2;P2;SDS_P1;SDS_P2;PMS_P1;PMS_P2;Temp;Humidity;BMP_temperature;BMP_pressure;BME280_temperature;BME280_humidity;BME280_pressure;Samples;Min_cycle;Max_cycle;Signal;HPM_P1;HPM_P2
2024/01/08 00:02:19;;;;;;;1.75;1.25;;;;;;;0.30;69.38;100473.41;12221114;19;20013;-84
2024/01/08 00:06:23;;;;;;;2.00;0.95;;;;;;;0.33;69.54;100473.97;12238409;19;20011;-86
2024/01/08 00:10:25;;;;;;;2.72;1.23;;;;;;;0.44;70.09;100462.75;12277717;19;20003;-86
2024/01/08 00:14:27;;;;;;;2.50;1.20;;;;;;;0.42;69.69;100464.81;12272415;19;20044;-87
2024/01/08 00:18:29;;;;;;;1.30;1.00;;;;;;;0.44;70.43;100473.59;12210493;19;20481;-86
2024/01/08 00:22:31;;;;;;;2.92;1.10;;;;;;;0.48;70.36;100470.56;12220147;19;20356;-86
2024/01/08 00:26:33;;;;;;;4.10;0.97;;;;;;;0.50;70.42;100471.25;12221956;19;20014;-86
2024/01/08 00:30:35;;;;;;;2.00;1.10;;;;;;;0.42;69.52;100478.38;12197807;19;20466;-84
2024/01/08 00:34:37;;;;;;;2.05;1.20;;;;;;;0.44;70.05;100467.34;12221047;19;20010;-84
2024/01/08 00:38:39;;;;;;;2.00;1.20;;;;;;;0.44;69.47;100468.19;12218001;19;20019;-85
2024/01/08 00:42:41;;;;;;;2.50;1.20;;;;;;;0.43;69.63;100469.22;12197028;19;20018;-84
2024/01/08 00:46:43;;;;;;;5.10;1.97;;;;;;;0.40;69.89;100461.41;12216849;19;20010;-84
2024/01/08 00:50:47;;;;;;;;;;;;;;;0.42;69.96;100463.97;12215509;19;20354;-83
2024/01/08 00:54:53;;;;;;;2.00;1.13;;;;;;;0.38;69.82;100460.72;12194497;19;20117;-83
2024/01/08 00:58:56;;;;;;;1.85;1.13;;;;;;;0.40;69.40;100466.00;12219135;19;20813;-84
2024/01/08 01:02:58;;;;;;;2.55;1.33;;;;;;;0.37;69.80;100467.16;12211373;19;20021;-85
2024/01/08 01:07:01;;;;;;;3.67;1.45;;;;;;;0.38;69.81;100468.00;12188924;19;20074;-84
2024/01/08 01:11:03;;;;;;;2.27;1.17;;;;;;;0.37;69.81;100472.59;12210462;19;20021;-85
2024/01/08 01:15:06;;;;;;;2.15;1.42;;;;;;;0.42;70.04;100475.66;12212838;19;20271;-86
2024/01/08 01:19:09;;;;;;;2.75;1.20;;;;;;;0.43;70.24;100480.06;12188791;19;20006;-86
2024/01/08 01:23:11;;;;;;;1.58;1.25;;;;;;;0.50;70.13;100479.38;12209444;19;20636;-83
2024/01/08 01:27:16;;;;;;;1.63;1.30;;;;;;;0.47;69.98;100477.00;12211054;19;20011;-85
2024/01/08 01:31:20;;;;;;;1.52;1.17;;;;;;;0.45;69.94;100480.75;12189686;19;20007;-85
2024/01/08 01:35:22;;;;;;;0.95;0.80;;;;;;;0.42;69.68;100481.09;12211185;19;20493;-85
2024/01/08 01:39:25;;;;;;;3.42;1.52;;;;;;;0.31;68.52;100484.09;12183553;19;20010;-86
2024/01/08 01:43:31;;;;;;;1.37;0.80;;;;;;;0.33;68.72;100490.22;12202403;19;20062;-86
2024/01/08 01:47:35;;;;;;;2.88;1.05;;;;;;;0.31;68.91;100489.53;12208411;19;20288;-84
2024/01/08 01:51:40;;;;;;;2.10;1.15;;;;;;;0.32;68.55;100490.38;12185111;19;20002;-84
2024/01/08 01:55:43;;;;;;;2.20;0.90;;;;;;;0.30;67.62;100497.81;12207617;19;20010;-86
2024/01/08 01:59:45;;;;;;;2.50;1.00;;;;;;;0.30;68.40;100493.25;12207068;19;20849;-85
2024/01/08 02:03:48;;;;;;;1.27;0.82;;;;;;;0.34;68.26;100485.66;12185420;19;20017;-86
2024/01/08 02:07:52;;;;;;;2.00;1.27;;;;;;;0.36;67.78;100487.19;12199546;19;20494;-85
2024/01/08 02:11:54;;;;;;;2.40;1.27;;;;;;;0.37;68.53;100488.03;12212157;19;20014;-84
2024/01/08 02:15:56;;;;;;;1.97;0.90;;;;;;;0.38;68.34;100478.84;12209366;19;20010;-85
2024/01/08 02:20:00;;;;;;;2.15;1.00;;;;;;;0.41;68.22;100481.22;12227904;19;20011;-84
2024/01/08 02:24:03;;;;;;;1.20;1.00;;;;;;;0.43;68.66;100481.91;12201217;19;20010;-84
2024/01/08 02:28:06;;;;;;;1.23;1.05;;;;;;;0.48;68.74;100470.56;12180931;19;20013;-86
2024/01/08 02:32:10;;;;;;;3.33;1.15;;;;;;;0.43;68.69;100469.22;12203058;19;20010;-84
2024/01/08 02:36:12;;;;;;;1.65;1.13;;;;;;;0.33;68.45;100475.81;12203653;19;20030;-83
2024/01/08 02:40:14;;;;;;;1.73;1.00;;;;;;;0.39;69.02;100481.41;12178864;19;20143;-84
2024/01/08 02:44:16;;;;;;;1.65;1.30;;;;;;;0.41;69.26;100468.53;12199089;19;20066;-84
2024/01/08 02:48:18;;;;;;;1.55;1.00;;;;;;;0.40;69.04;100480.38;12183988;19;20529;-84
2024/01/08 02:52:21;;;;;;;4.80;1.10;;;;;;;0.40;69.76;100474.13;12210232;19;20122;-86
2024/01/08 02:56:24;;;;;;;2.42;1.52;;;;;;;0.34;69.23;100482.94;12203655;19;20090;-86
2024/01/08 03:00:26;;;;;;;2.15;1.13;;;;;;;0.30;69.89;100477.00;12180458;19;20493;-86
2024/01/08 03:04:28;;;;;;;2.40;0.80;;;;;;;0.35;69.81;100480.03;12203258;19;20481;-86
2024/01/08 03:08:30;;;;;;;1.90;0.85;;;;;;;0.32;69.52;100480.38;12200388;19;20022;-87
2024/01/08 03:12:33;;;;;;;2.58;1.17;;;;;;;0.36;69.70;100483.63;12174277;19;20011;-85
2024/01/08 03:16:35;;;;;;;2.60;1.20;;;;;;;0.30;69.32;100487.84;12205515;19;20003;-86
2024/01/08 03:20:37;;;;;;;2.50;1.20;;;;;;;0.26;69.45;100491.03;12204732;19;20510;-86
2024/01/08 03:24:39;;;;;;;1.93;1.23;;;;;;;0.16;68.99;100488.47;12178720;19;20023;-87
2024/01/08 03:28:40;;;;;;;1.88;0.93;;;;;;;0.20;69.49;100487.97;12202250;19;20944;-86
2024/01/08 03:32:42;;;;;;;3.85;1.58;;;;;;;0.22;69.40;100496.78;12200543;19;20018;-87
2024/01/08 03:36:49;;;;;;;1.23;0.82;;;;;;;0.11;69.33;100490.84;12180303;19;20010;-87
2024/01/08 03:40:51;;;;;;;2.53;1.20;;;;;;;0.23;69.57;100481.38;12204760;19;20015;-87
2024/01/08 03:44:52;;;;;;;2.37;1.10;;;;;;;0.28;69.53;100491.72;12207289;19;20062;-84
2024/01/08 03:48:54;;;;;;;2.20;1.07;;;;;;;0.26;69.43;100491.88;12189564;19;20635;-87
2024/01/08 03:52:56;;;;;;;1.40;1.10;;;;;;;0.18;69.34;100489.19;12209224;19;20024;-86
2024/01/08 03:56:59;;;;;;;2.45;1.10;;;;;;;0.14;69.15;100483.22;12219681;19;20207;-85
2024/01/08 04:01:04;;;;;;;1.98;1.40;;;;;;;0.18;69.59;100492.72;12141968;19;20007;-85
2024/01/08 04:05:11;;;;;;;2.05;0.90;;;;;;;0.24;70.09;100485.81;12235838;19;20006;-86
2024/01/08 04:09:15;;;;;;;3.22;1.33;;;;;;;0.19;69.57;100486.28;12214214;19;20034;-85
2024/01/08 04:13:18;;;;;;;1.95;1.20;;;;;;;0.11;68.79;100502.53;12191111;19;20402;-83
2024/01/08 04:17:20;;;;;;;4.20;1.40;;;;;;;0.16;69.54;100502.88;12211560;19;20198;-85
2024/01/08 04:21:22;;;;;;;4.00;1.47;;;;;;;0.21;69.37;100488.84;12190381;19;20482;-86
2024/01/08 04:25:25;;;;;;;3.95;1.33;;;;;;;0.26;69.40;100508.16;12210813;19;20011;-86
2024/01/08 04:29:27;;;;;;;3.90;1.30;;;;;;;0.21;68.64;100497.81;12211261;19;20441;-85
2024/01/08 04:33:29;;;;;;;3.35;2.33;;;;;;;0.23;68.78;100500.34;12195413;19;20014;-86
2024/01/08 04:37:31;;;;;;;2.42;1.25;;;;;;;0.15;68.28;100497.59;12219987;19;20007;-86
2024/01/08 04:41:34;;;;;;;3.20;1.40;;;;;;;0.21;68.08;100508.66;12236699;19;20019;-84
2024/01/08 04:45:36;;;;;;;2.20;1.23;;;;;;;0.17;67.26;100503.72;12190814;19;20010;-85
2024/01/08 04:49:39;;;;;;;;;;;;;;;0.11;66.80;100507.09;12213022;19;20468;-85
2024/01/08 04:53:41;;;;;;;;;;;;;;;0.06;66.42;100512.16;12209450;19;20547;-85
2024/01/08 04:57:44;;;;;;;1.42;1.05;;;;;;;-0.03;66.07;100501.31;12192040;19;20433;-86
2024/01/08 05:01:47;;;;;;;3.90;1.42;;;;;;;-0.05;66.25;100511.44;12211242;19;20011;-85
2024/01/08 05:05:56;;;;;;;2.75;1.40;;;;;;;-0.04;66.90;100510.44;12209990;19;20026;-83
2024/01/08 05:09:58;;;;;;;3.57;1.20;;;;;;;0.02;67.17;100517.06;12186043;19;20465;-84
2024/01/08 05:14:03;;;;;;;2.03;1.30;;;;;;;0.04;67.07;100514.19;12208059;19;20007;-84
2024/01/08 05:18:05;;;;;;;3.92;1.90;;;;;;;-0.05;66.24;100522.28;12213534;19;20027;-85
2024/01/08 05:22:08;;;;;;;2.10;1.42;;;;;;;0.08;67.19;100515.56;12189203;19;20027;-84
2024/01/08 05:26:10;;;;;;;2.85;1.70;;;;;;;0.00;66.29;100516.41;12213137;19;20386;-85
2024/01/08 05:30:13;;;;;;;3.10;1.63;;;;;;;-0.05;66.44;100527.72;12216579;19;20015;-87
2024/01/08 05:34:15;;;;;;;5.10;1.70;;;;;;;0.01;67.00;100520.78;12189463;19;20006;-87
2024/01/08 05:38:18;;;;;;;3.38;1.40;;;;;;;-0.02;66.36;100535.50;12210961;19;20007;-86
2024/01/08 05:42:21;;;;;;;3.35;1.73;;;;;;;-0.06;66.79;100534.16;12190743;19;20010;-87
2024/01/08 05:46:23;;;;;;;3.90;1.67;;;;;;;-0.09;66.38;100537.19;12211403;19;20066;-85
2024/01/08 05:50:27;;;;;;;3.50;1.42;;;;;;;-0.02;67.09;100537.38;12210887;19;20496;-86
2024/01/08 05:54:32;;;;;;;5.10;2.05;;;;;;;0.05;67.25;100541.13;12186938;19;20106;-85
2024/01/08 05:58:34;;;;;;;4.10;1.27;;;;;;;0.05;67.13;100545.69;12209544;19;20010;-85
2024/01/08 06:02:37;;;;;;;5.00;2.10;;;;;;;0.05;67.23;100551.13;12205228;19;20477;-84
2024/01/08 06:06:39;;;;;;;3.30;1.60;;;;;;;0.03;67.34;100547.72;12185740;19;20003;-87
2024/01/08 06:10:43;;;;;;;3.60;1.60;;;;;;;-0.01;67.24;100547.19;12205969;19;20011;-86
2024/01/08 06:14:45;;;;;;;3.53;1.73;;;;;;;0.07;67.90;100541.81;12210595;19;20059;-86
2024/01/08 06:18:47;;;;;;;3.67;2.10;;;;;;;0.08;67.86;100546.22;12187742;19;20014;-86
2024/01/08 06:22:50;;;;;;;2.88;1.45;;;;;;;0.09;67.70;100547.06;12205650;19;20327;-86
2024/01/08 06:26:52;;;;;;;3.13;1.48;;;;;;;0.10;68.15;100552.31;12206226;19;20006;-86
2024/01/08 06:30:56;;;;;;;2.70;1.53;;;;;;;0.17;68.43;100541.66;12200148;19;20027;-85
2024/01/08 06:34:58;;;;;;;3.45;1.48;;;;;;;-0.02;68.07;100535.50;12215165;19;20255;-88
2024/01/08 06:39:01;;;;;;;3.60;1.90;;;;;;;0.08;68.76;100542.66;12210333;19;20015;-87
2024/01/08 06:43:03;;;;;;;3.43;1.50;;;;;;;0.12;68.56;100541.31;12187957;19;20027;-87
2024/01/08 06:47:05;;;;;;;2.40;1.47;;;;;;;0.08;68.46;100545.38;12219084;19;20489;-87
2024/01/08 06:51:07;;;;;;;7.63;1.67;;;;;;;0.08;68.17;100548.06;12268942;19;20042;-83
2024/01/08 06:55:09;;;;;;;3.88;1.77;;;;;;;0.01;68.41;100557.88;12248249;19;20071;-85
2024/01/08 06:59:11;;;;;;;3.00;1.97;;;;;;;-0.04;68.48;100556.50;12234946;19;20003;-84
2024/01/08 07:03:14;;;;;;;2.10;1.35;;;;;;;-0.01;69.33;100549.91;12202611;19;20027;-86
2024/01/08 07:07:16;;;;;;;3.00;1.77;;;;;;;0.06;69.28;100553.69;12177688;19;20007;-85
2024/01/08 07:11:22;;;;;;;3.50;1.92;;;;;;;0.09;69.22;100558.75;12201940;19;20010;-85
2024/01/08 07:15:43;;;;;;;4.03;1.83;;;;;;;0.11;69.52;100559.44;12185109;19;20011;-86
2024/01/08 07:19:45;;;;;;;4.03;2.22;;;;;;;0.08;69.30;100570.59;12212921;19;20014;-85
2024/01/08 07:23:48;;;;;;;2.40;1.80;;;;;;;0.04;69.26;100562.97;12211264;19;20830;-85
2024/01/08 07:27:51;;;;;;;3.20;1.67;;;;;;;-0.02;68.45;100581.56;12191166;19;20031;-85
2024/01/08 07:31:55;;;;;;;5.75;2.30;;;;;;;-0.04;68.33;100580.88;12211681;19;20007;-86
2024/01/08 07:35:56;;;;;;;21.53;7.07;;;;;;;-0.08;67.68;100576.81;12227735;19;20011;-85
2024/01/08 07:39:59;;;;;;;6.80;2.95;;;;;;;-0.07;67.52;100588.47;12193809;19;20034;-86
2024/01/08 07:44:02;;;;;;;10.10;3.22;;;;;;;-0.05;67.49;100598.16;12214296;19;20066;-87
2024/01/08 07:48:06;;;;;;;5.72;2.80;;;;;;;-0.12;66.49;100590.81;12218582;19;20031;-86
2024/01/08 07:52:08;;;;;;;5.28;2.60;;;;;;;-0.22;66.01;100601.78;12195035;19;20017;-86
2024/01/08 07:56:11;;;;;;;3.55;1.65;;;;;;;-0.36;63.70;100611.34;12215134;19;20010;-84
2024/01/08 08:00:14;;;;;;;3.07;1.80;;;;;;;-0.49;62.87;100610.91;12219403;19;20018;-85
2024/01/08 08:04:16;;;;;;;7.07;3.70;;;;;;;-0.46;63.49;100606.03;12194548;19;20017;-86
2024/01/08 08:08:19;;;;;;;3.78;2.03;;;;;;;-0.41;62.97;100618.25;12214431;19;20474;-85
2024/01/08 08:12:21;;;;;;;6.10;1.80;;;;;;;-0.43;62.57;100615.69;12197585;19;20018;-86
2024/01/08 08:16:24;;;;;;;;;;;;;;;-0.40;62.15;100626.22;12221798;19;20002;-85
2024/01/08 08:20:27;;;;;;;4.07;2.50;;;;;;;-0.34;62.13;100635.56;12224307;19;19914;-86
2024/01/08 08:24:29;;;;;;;3.67;1.83;;;;;;;-0.37;60.91;100642.16;12202129;19;20013;-87
2024/01/08 08:28:36;;;;;;;6.05;2.40;;;;;;;-0.49;60.63;100644.25;12215527;19;20480;-86
2024/01/08 08:32:39;;;;;;;6.57;2.40;;;;;;;-0.32;60.75;100638.97;12212577;19;20376;-85
2024/01/08 08:36:42;;;;;;;7.53;2.55;;;;;;;-0.33;59.53;100650.78;12193124;19;20007;-85
2024/01/08 08:40:45;;;;;;;6.13;2.47;;;;;;;-0.47;58.00;100658.50;12212508;19;20014;-86
2024/01/08 08:44:47;;;;;;;5.53;2.83;;;;;;;-0.70;58.58;100657.28;12210363;19;20035;-85
2024/01/08 08:48:49;;;;;;;4.95;2.05;;;;;;;-0.88;57.71;100656.47;12191401;19;20011;-84
2024/01/08 08:52:53;;;;;;;4.22;2.10;;;;;;;-0.84;57.86;100661.38;12213242;19;20023;-86
2024/01/08 08:57:00;;;;;;;5.25;2.38;;;;;;;-0.91;57.92;100668.44;12219594;19;20010;-87
2024/01/08 09:01:02;;;;;;;13.75;5.70;;;;;;;-0.89;59.03;100670.97;12190461;19;20034;-86
2024/01/08 09:05:07;;;;;;;4.85;2.20;;;;;;;-1.11;58.61;100686.66;12216597;19;20379;-85
2024/01/08 09:09:12;;;;;;;7.13;2.40;;;;;;;-1.17;59.80;100671.03;12217644;19;20011;-86
2024/01/08 09:13:20;;;;;;;4.50;2.22;;;;;;;-1.28;59.70;100674.81;12192512;19;20034;-86
2024/01/08 09:17:22;;;;;;;5.47;2.40;;;;;;;-1.41;59.73;100687.84;12213136;19;20020;-87
2024/01/08 09:21:25;;;;;;;2.88;1.83;;;;;;;-1.60;59.10;100691.50;12194446;19;20027;-86
2024/01/08 09:25:27;;;;;;;9.27;2.40;;;;;;;-1.54;59.14;100690.06;12210096;19;20819;-87
2024/01/08 09:29:31;;;;;;;4.78;2.28;;;;;;;-1.54;59.38;100700.88;12216611;19;20006;-86
2024/01/08 09:33:39;;;;;;;6.95;2.60;;;;;;;-1.45;59.27;100698.09;12192167;19;20003;-86
2024/01/08 09:37:45;;;;;;;5.70;2.90;;;;;;;-1.35;58.87;100699.91;12210496;19;20089;-86
2024/01/08 09:41:48;;;;;;;6.72;3.25;;;;;;;-1.22;59.17;100703.97;12210301;19;20047;-86
2024/01/08 09:45:50;;;;;;;;;;;;;;;-1.03;59.18;100696.72;12188163;19;20035;-87
2024/01/08 09:49:53;;;;;;;6.60;2.70;;;;;;;-0.94;57.94;100699.34;12211857;19;19919;-86
2024/01/08 09:53:58;;;;;;;6.35;2.58;;;;;;;-1.01;56.92;100691.97;12215782;19;20011;-84
2024/01/08 09:58:02;;;;;;;5.28;2.17;;;;;;;-1.03;56.73;100697.56;12195839;19;20018;-86
2024/01/08 10:02:03;;;;;;;3.55;1.73;;;;;;;-1.08;56.09;100704.44;12211070;19;20006;-86
2024/01/08 10:06:09;;;;;;;4.97;2.42;;;;;;;-1.01;57.20;100695.56;12232012;19;20472;-85
2024/01/08 10:10:11;;;;;;;3.38;2.00;;;;;;;-1.19;55.74;100706.38;12192818;19;20010;-85
2024/01/08 10:14:13;;;;;;;4.53;2.10;;;;;;;-1.34;56.03;100710.56;12215523;19;20015;-87
2024/01/08 10:18:17;;;;;;;5.27;2.27;;;;;;;-1.32;57.24;100718.53;12209658;19;20590;-87
2024/01/08 10:22:22;;;;;;;3.47;1.85;;;;;;;-1.38;57.09;100704.59;12184778;19;20430;-85
2024/01/08 10:26:28;;;;;;;5.57;2.15;;;;;;;-1.48;56.73;100703.81;12208639;19;20536;-85
2024/01/08 10:30:34;;;;;;;3.05;1.80;;;;;;;-1.50;57.18;100705.81;12191831;19;20119;-82
2024/01/08 10:34:39;;;;;;;5.82;2.33;;;;;;;-1.46;57.02;100703.66;12211341;19;20013;-86
2024/01/08 10:38:46;;;;;;;8.25;2.03;;;;;;;-1.36;57.28;100701.75;12207313;19;20017;-86
2024/01/08 10:42:51;;;;;;;5.32;2.22;;;;;;;-1.13;57.19;100698.63;12183010;19;20545;-85
2024/01/08 10:46:57;;;;;;;5.03;2.58;;;;;;;-0.65;57.47;100700.16;12203521;19;20003;-85
2024/01/08 10:51:04;;;;;;;5.45;2.70;;;;;;;-0.33;56.25;100689.59;12220643;19;20007;-87
2024/01/08 10:55:13;;;;;;;6.05;2.78;;;;;;;-0.09;54.95;100688.03;12198538;19;20010;-87
2024/01/08 10:59:22;;;;;;;4.63;2.38;;;;;;;0.08;54.22;100692.53;12223414;19;20010;-85
2024/01/08 11:03:24;;;;;;;5.53;2.40;;;;;;;0.42;54.63;100698.00;12201036;19;20007;-86
2024/01/08 11:07:29;;;;;;;5.28;2.97;;;;;;;0.80;53.91;100689.47;12216872;19;20010;-86
2024/01/08 11:11:37;;;;;;;5.43;2.63;;;;;;;0.96;52.50;100689.53;12221164;19;20074;-84
2024/01/08 11:15:44;;;;;;;8.25;3.40;;;;;;;1.09;52.26;100680.91;12202341;19;20022;-84
2024/01/08 11:19:48;;;;;;;3.97;2.40;;;;;;;1.06;51.53;100681.25;12220461;19;20022;-86
2024/01/08 11:23:49;;;;;;;7.60;3.25;;;;;;;1.04;51.45;100686.84;12220703;19;20014;-84
2024/01/08 11:27:59;;;;;;;7.38;2.60;;;;;;;0.96;51.61;100689.53;12199774;19;20031;-87
2024/01/08 11:32:18;;;;;;;8.52;3.13;;;;;;;0.88;51.60;100693.06;12241717;19;20003;-84
2024/01/08 11:36:34;;;;;;;5.05;2.30;;;;;;;0.83;51.42;100686.44;12216288;19;20010;-86
2024/01/08 11:40:39;;;;;;;5.38;2.92;;;;;;;0.80;51.79;100690.31;12230414;19;20007;-88
2024/01/08 11:44:41;;;;;;;5.28;2.65;;;;;;;0.64;51.31;100693.00;12234085;19;20014;-83
2024/01/08 11:48:44;;;;;;;4.22;2.20;;;;;;;0.74;51.60;100690.97;12205555;19;20007;-85
2024/01/08 11:52:47;;;;;;;5.80;2.90;;;;;;;0.80;51.80;100686.75;12230672;19;20007;-87
2024/01/08 11:56:49;;;;;;;4.50;2.20;;;;;;;1.05;51.95;100690.41;12224764;19;20011;-86
2024/01/08 12:00:51;;;;;;;4.50;2.10;;;;;;;1.45;51.75;100691.47;12213101;19;20014;-81
2024/01/08 12:05:00;;;;;;;5.50;2.30;;;;;;;1.48;50.03;100682.97;12227649;19;19999;-85
2024/01/08 12:09:03;;;;;;;5.53;2.58;;;;;;;1.81;50.09;100678.38;12217032;19;20018;-86
2024/01/08 12:13:05;;;;;;;5.32;2.80;;;;;;;2.16;49.00;100687.16;12196396;19;20033;-86
2024/01/08 12:17:09;;;;;;;5.95;3.00;;;;;;;2.42;47.74;100678.75;12216826;19;20093;-87
2024/01/08 12:21:13;;;;;;;6.03;3.00;;;;;;;2.63;48.61;100680.88;12226929;19;20022;-85
2024/01/08 12:25:15;;;;;;;6.25;3.05;;;;;;;2.66;46.42;100688.69;12196068;19;20029;-87
2024/01/08 12:29:18;;;;;;;5.10;2.70;;;;;;;2.82;47.48;100690.47;12214573;19;20010;-87
2024/01/08 12:33:20;;;;;;;11.35;4.75;;;;;;;2.92;46.63;100683.78;12192778;19;20040;-83
2024/01/08 12:37:22;;;;;;;7.78;3.08;;;;;;;3.04;46.73;100686.97;12217003;19;20066;-87
2024/01/08 12:41:24;;;;;;;5.57;3.03;;;;;;;3.32;45.97;100683.72;12213679;19;20007;-84
2024/01/08 12:45:26;;;;;;;5.63;2.90;;;;;;;3.46;45.99;100682.94;12193030;19;20026;-86
2024/01/08 12:49:28;;;;;;;8.57;3.58;;;;;;;3.06;45.84;100694.94;12215234;19;20019;-84
2024/01/08 12:53:31;;;;;;;5.13;2.72;;;;;;;2.60;46.48;100695.69;12211479;19;20846;-87
2024/01/08 12:57:33;;;;;;;6.18;3.42;;;;;;;1.71;46.34;100694.88;12198439;19;20421;-85
2024/01/08 13:01:35;;;;;;;7.33;3.73;;;;;;;1.51;47.39;100693.50;12212283;19;20015;-88
2024/01/08 13:05:39;;;;;;;8.30;3.90;;;;;;;1.35;47.87;100694.34;12211659;19;20018;-86
2024/01/08 13:09:41;;;;;;;5.30;2.50;;;;;;;1.08;48.28;100698.22;12190207;19;20042;-87
2024/01/08 13:13:43;;;;;;;4.85;2.72;;;;;;;0.96;48.91;100699.56;12209258;19;20014;-87
2024/01/08 13:17:48;;;;;;;5.40;2.63;;;;;;;0.79;49.38;100694.06;12219672;19;20002;-87
2024/01/08 13:21:51;;;;;;;6.83;2.73;;;;;;;0.79;49.61;100698.63;12191352;19;20019;-85
2024/01/08 13:25:53;;;;;;;6.47;3.40;;;;;;;0.79;49.74;100695.94;12217274;19;20006;-87
2024/01/08 13:29:56;;;;;;;8.02;3.25;;;;;;;0.37;49.67;100707.63;12224277;19;20003;-86
2024/01/08 13:34:01;;;;;;;8.00;3.22;;;;;;;0.19;50.15;100700.41;12252636;19;20043;-82
2024/01/08 13:38:04;;;;;;;11.40;3.72;;;;;;;-0.04;50.38;100707.38;12274019;19;20006;-84
2024/01/08 13:42:07;;;;;;;8.27;4.20;;;;;;;-0.16;51.35;100708.66;12246019;19;20003;-87
2024/01/08 13:46:10;;;;;;;8.23;3.30;;;;;;;-0.27;51.25;100710.63;12183769;19;20399;-86
2024/01/08 13:50:12;;;;;;;10.20;4.18;;;;;;;-0.31;51.92;100713.78;12213273;19;20010;-84
2024/01/08 13:54:16;;;;;;;9.80;4.70;;;;;;;-0.54;52.20;100719.69;12214214;19;20018;-83
2024/01/08 13:58:18;;;;;;;5.00;2.15;;;;;;;-0.70;52.53;100716.84;12186879;19;20006;-84
2024/01/08 14:02:21;;;;;;;9.35;3.92;;;;;;;-0.65;52.08;100728.06;12207941;19;20016;-86
2024/01/08 14:06:24;;;;;;;10.35;4.57;;;;;;;-0.75;52.94;100721.84;12186433;19;20007;-84
2024/01/08 14:10:27;;;;;;;8.88;4.15;;;;;;;-0.81;53.47;100725.19;12208645;19;20043;-83
2024/01/08 14:14:28;;;;;;;;;;;;;;;-0.74;52.97;100737.94;12211421;19;20011;-85
2024/01/08 14:18:31;;;;;;;10.60;4.67;;;;;;;-0.77;53.75;100734.72;12188966;19;19934;-85
2024/01/08 14:22:40;;;;;;;12.70;5.28;;;;;;;-0.84;53.43;100741.72;12209333;19;20050;-85
2024/01/08 14:26:42;;;;;;;9.65;4.22;;;;;;;-0.81;53.64;100744.13;12202392;19;20022;-83
2024/01/08 14:30:45;;;;;;;10.43;4.30;;;;;;;-0.93;54.08;100755.16;12182511;19;20011;-85
2024/01/08 14:34:47;;;;;;;11.93;4.90;;;;;;;-1.09;54.10;100746.03;12205172;19;20463;-85
2024/01/08 14:38:50;;;;;;;;;;;;;;;-1.24;55.04;100745.69;12208158;19;20044;-81
2024/01/08 14:42:59;;;;;;;13.82;4.80;;;;;;;-1.45;54.96;100743.22;12182990;19;19906;-85
2024/01/08 14:47:02;;;;;;;10.98;4.57;;;;;;;-1.70;55.67;100755.53;12219662;19;20513;-87
2024/01/08 14:51:06;;;;;;;10.43;4.78;;;;;;;-1.74;56.18;100756.84;12228219;19;20127;-86
2024/01/08 14:55:09;;;;;;;14.00;4.63;;;;;;;-1.79;56.59;100761.81;12193657;19;20078;-86
2024/01/08 14:59:11;;;;;;;15.02;5.10;;;;;;;-1.89;56.79;100768.09;12211065;19;20035;-87
2024/01/08 15:03:14;;;;;;;13.23;3.92;;;;;;;-2.05;57.42;100757.06;12214992;19;20006;-85
2024/01/08 15:07:16;;;;;;;12.73;5.03;;;;;;;-2.18;57.69;100772.72;12187266;19;20014;-85
2024/01/08 15:11:18;;;;;;;11.07;4.97;;;;;;;-2.32;58.32;100777.56;12207174;19;20034;-86
2024/01/08 15:15:20;;;;;;;11.43;4.45;;;;;;;-2.39;58.32;100780.97;12193397;19;20007;-86
2024/01/08 15:19:26;;;;;;;9.90;4.88;;;;;;;-2.51;58.72;100793.75;12206465;19;20502;-86
2024/01/08 15:23:33;;;;;;;13.25;5.10;;;;;;;-2.61;58.60;100791.03;12213121;19;20039;-86
2024/01/08 15:27:41;;;;;;;11.23;4.85;;;;;;;-2.73;59.65;100794.03;12189754;19;21427;-86
2024/01/08 15:31:43;;;;;;;9.75;5.20;;;;;;;-2.81;59.39;100792.84;12209248;19;20010;-87
2024/01/08 15:35:45;;;;;;;10.65;4.47;;;;;;;-2.81;59.71;100797.41;12217396;19;20006;-86
2024/01/08 15:39:49;;;;;;;12.50;4.35;;;;;;;-2.91;60.57;100794.69;12198433;19;20006;-84
2024/01/08 15:43:50;;;;;;;11.63;5.13;;;;;;;-2.97;60.44;100808.75;12218314;19;20022;-85
2024/01/08 15:47:52;;;;;;;11.63;4.72;;;;;;;-3.04;61.49;100815.66;12219481;19;20118;-87
2024/01/08 15:51:54;;;;;;;9.27;3.33;;;;;;;-3.12;61.49;100810.09;12195124;19;20017;-83
2024/01/08 15:55:56;;;;;;;10.32;3.92;;;;;;;-3.22;62.30;100810.06;12218655;19;20022;-88
2024/01/08 16:00:00;;;;;;;11.50;4.45;;;;;;;-3.26;62.17;100825.66;12214483;19;20010;-86
2024/01/08 16:04:02;;;;;;;9.85;4.75;;;;;;;-3.37;62.89;100831.13;12195870;19;20059;-86
2024/01/08 16:08:09;;;;;;;11.50;5.40;;;;;;;-3.41;62.63;100835.09;12216498;19;20022;-86
2024/01/08 16:12:13;;;;;;;12.80;4.90;;;;;;;-3.45;62.75;100847.13;12215851;19;20023;-87
2024/01/08 16:16:14;;;;;;;20.20;8.67;;;;;;;-3.52;62.93;100843.25;12204349;19;20014;-82
2024/01/08 16:20:20;;;;;;;7.40;3.83;;;;;;;-3.61;63.89;100857.53;12230235;19;21035;-85
2024/01/08 16:24:23;;;;;;;20.08;9.85;;;;;;;-3.62;63.52;100861.22;12195408;19;20047;-85
2024/01/08 16:28:27;;;;;;;9.70;5.25;;;;;;;-3.67;64.36;100870.53;12216047;19;20009;-85
2024/01/08 16:32:28;;;;;;;14.37;6.87;;;;;;;-3.69;64.19;100872.53;12214738;19;20065;-86
2024/01/08 16:36:37;;;;;;;17.75;6.55;;;;;;;-3.77;64.61;100874.19;12189460;19;20789;-86
2024/01/08 16:40:40;;;;;;;19.85;9.73;;;;;;;-3.76;64.45;100879.41;12210847;19;20014;-86
2024/01/08 16:44:42;;;;;;;13.77;5.47;;;;;;;-3.81;64.61;100878.09;12208129;19;20035;-86
2024/01/08 16:48:44;;;;;;;16.85;7.07;;;;;;;-3.90;65.41;100880.63;12185604;19;20061;-86
2024/01/08 16:52:47;;;;;;;20.15;9.02;;;;;;;-3.94;65.47;100883.69;12208972;19;20034;-86
2024/01/08 16:56:54;;;;;;;13.07;5.80;;;;;;;-4.03;66.27;100882.63;12212387;19;20820;-86
2024/01/08 17:00:56;;;;;;;25.98;10.48;;;;;;;-4.07;66.34;100894.63;12187619;19;20067;-83
2024/01/08 17:04:58;;;;;;;17.73;7.63;;;;;;;-4.07;66.47;100893.78;12212214;19;20002;-84
2024/01/08 17:09:03;;;;;;;17.67;8.77;;;;;;;-4.10;66.60;100894.00;12209836;19;20058;-85
2024/01/08 17:13:10;;;;;;;20.85;9.05;;;;;;;-4.12;67.00;100900.41;12186308;19;20006;-85
2024/01/08 17:17:12;;;;;;;15.20;6.85;;;;;;;-4.16;67.17;100911.56;12216248;19;20878;-87
2024/01/08 17:21:22;;;;;;;15.75;6.63;;;;;;;-4.19;67.05;100911.81;12191701;19;20030;-86
2024/01/08 17:25:27;;;;;;;14.20;8.00;;;;;;;-4.24;67.48;100914.88;12211702;19;20114;-85
2024/01/08 17:29:32;;;;;;;23.58;7.43;;;;;;;-4.28;68.54;100915.25;12240320;19;20006;-85
2024/01/08 17:33:35;;;;;;;20.83;7.57;;;;;;;-4.28;67.85;100923.31;12216131;19;20018;-87
2024/01/08 17:37:37;;;;;;;20.27;6.68;;;;;;;-4.36;68.34;100923.97;12222022;19;20014;-85
2024/01/08 17:41:39;;;;;;;12.93;6.65;;;;;;;-4.39;68.52;100933.16;12214268;19;20003;-86
2024/01/08 17:45:43;;;;;;;16.45;6.35;;;;;;;-4.41;68.34;100937.78;12189258;19;20532;-86
2024/01/08 17:49:45;;;;;;;10.20;5.80;;;;;;;-4.45;69.41;100940.88;12210801;19;20596;-87
2024/01/08 17:53:46;;;;;;;14.20;6.05;;;;;;;-4.51;69.54;100923.41;12210288;19;20032;-87
2024/01/08 17:57:48;;;;;;;14.65;6.13;;;;;;;-4.55;69.26;100931.81;12206389;19;20359;-86
2024/01/08 18:01:51;;;;;;;11.52;5.25;;;;;;;-4.62;69.98;100943.09;12229878;19;20029;-86
2024/01/08 18:05:54;;;;;;;13.05;5.68;;;;;;;-4.66;70.39;100936.25;12216015;19;20002;-86
2024/01/08 18:09:56;;;;;;;17.33;6.88;;;;;;;-4.66;70.18;100938.09;12199479;19;20027;-85
2024/01/08 18:13:58;;;;;;;15.05;6.68;;;;;;;-4.65;70.19;100940.63;12215129;19;20569;-85
2024/01/08 18:18:00;;;;;;;13.68;6.93;;;;;;;-4.73;70.98;100950.31;12221946;19;20478;-85
2024/01/08 18:22:07;;;;;;;16.88;7.22;;;;;;;-4.77;70.71;100949.69;12194763;19;20013;-84
2024/01/08 18:26:09;;;;;;;13.15;5.63;;;;;;;-4.83;71.38;100952.88;12210210;19;20015;-86
2024/01/08 18:30:14;;;;;;;14.05;6.18;;;;;;;-4.82;70.89;100965.34;12214968;19;20009;-89
2024/01/08 18:34:16;;;;;;;9.52;5.68;;;;;;;-4.86;71.37;100974.63;12184809;19;20493;-87
2024/01/08 18:38:19;;;;;;;13.52;6.80;;;;;;;-4.88;71.03;100977.47;12206696;19;20018;-85
2024/01/08 18:42:22;;;;;;;10.60;5.30;;;;;;;-4.94;71.30;100979.75;12183940;19;20074;-87
2024/01/08 18:46:25;;;;;;;11.35;5.75;;;;;;;-4.91;70.95;100976.81;12204910;19;20010;-87